Time;durP1;ratioP1;P1;durP2;ratioP2;P2;SDS_P1;SDS_P2;PMS_P1;PMS_P2;Temp;Humidity;BMP_temperature;BMP_pressure;BME280_temperature;BME280_humidity;BME280_pressure;Samples;Min_cycle;Max_cycle;Signal;HPM_P1;HPM_P2
2021/09/30 00:03:07;;;;;;;1.90;1.50;;;13.90;99.90;;;;;;10460783;28;20629;-84
2021/09/30 00:08:11;;;;;;;3.23;1.83;;;13.90;99.90;;;;;;10459567;28;20207;-85
2021/09/30 00:13:25;;;;;;;1.87;1.77;;;13.80;99.90;;;;;;10459063;28;20209;-84
2021/09/30 00:34:42;;;;;;;2.80;2.13;;;13.80;99.90;;;;;;10412909;28;20229;-84
2021/09/30 00:40:13;;;;;;;2.73;1.90;;;13.80;99.90;;;;;;10426758;28;20552;-84
2021/09/30 00:50:49;;;;;;;2.40;2.20;;;13.70;99.90;;;;;;10382922;28;20200;-84
2021/09/30 01:18:00;;;;;;;2.03;1.83;;;13.60;99.90;;;;;;10400885;28;20589;-84
2021/09/30 02:23:42;;;;;;;1.97;1.77;;;13.40;99.90;;;;;;10400804;28;20241;-84
2021/09/30 02:29:06;;;;;;;2.10;1.90;;;13.30;99.90;;;;;;10407533;28;20202;-84
2021/09/30 03:01:32;;;;;;;2.37;2.17;;;13.20;99.90;;;;;;10447389;28;20632;-82
2021/09/30 03:06:37;;;;;;;2.43;2.10;;;13.20;99.90;;;;;;10448104;28;20201;-82
2021/09/30 03:11:48;;;;;;;4.70;2.47;;;13.20;99.90;;;;;;10464741;28;20235;-82
2021/09/30 03:16:53;;;;;;;2.53;2.20;;;13.20;99.90;;;;;;10464362;28;20557;-82
2021/09/30 03:22:14;;;;;;;2.67;1.93;;;13.10;99.90;;;;;;10447564;28;20216;-82
2021/09/30 03:27:18;;;;;;;2.53;2.33;;;13.10;99.90;;;;;;10464617;28;20381;-82
2021/09/30 03:32:22;;;;;;;2.57;2.47;;;13.00;99.90;;;;;;10446707;28;20240;-82
2021/09/30 03:37:52;;;;;;;3.20;2.43;;;13.00;99.90;;;;;;10461100;28;20204;-82
2021/09/30 03:42:55;;;;;;;2.43;2.23;;;12.90;99.90;;;;;;10448210;28;20638;-83
2021/09/30 03:47:57;;;;;;;2.50;2.40;;;12.90;99.90;;;;;;10465144;28;20197;-82
2021/09/30 03:53:05;;;;;;;3.07;2.10;;;12.90;99.90;;;;;;10477180;28;20312;-82
2021/09/30 04:03:28;;;;;;;2.27;2.10;;;12.90;99.90;;;;;;10441769;28;20204;-82
2021/09/30 04:08:33;;;;;;;2.30;2.10;;;12.90;99.90;;;;;;10459032;28;20185;-83
2021/09/30 04:13:35;;;;;;;2.20;2.10;;;12.90;99.90;;;;;;10465856;28;20221;-82
2021/09/30 04:18:37;;;;;;;2.37;2.10;;;12.90;99.90;;;;;;10465870;28;20228;-82
2021/09/30 04:23:41;;;;;;;3.00;2.30;;;12.80;99.90;;;;;;10449799;28;20300;-81
2021/09/30 04:28:43;;;;;;;2.80;2.50;;;12.70;99.90;;;;;;10467743;28;20194;-81
2021/09/30 04:33:45;;;;;;;2.57;2.37;;;12.70;99.90;;;;;;10467548;28;20225;-81
2021/09/30 04:38:50;;;;;;;2.13;1.90;;;12.60;99.90;;;;;;10469224;28;20193;-82
2021/09/30 04:43:53;;;;;;;2.40;1.90;;;12.60;99.90;;;;;;10457729;28;20221;-82
2021/09/30 04:48:56;;;;;;;2.43;2.27;;;12.50;99.90;;;;;;10474629;28;20193;-81
2021/09/30 04:54:00;;;;;;;1.90;1.70;;;12.50;99.90;;;;;;10459031;28;20225;-81
2021/09/30 04:59:03;;;;;;;3.40;2.40;;;12.40;99.90;;;;;;10457521;28;20227;-84
2021/09/30 05:04:05;;;;;;;2.10;2.00;;;12.30;99.90;;;;;;10434861;28;20236;-84
2021/09/30 05:09:09;;;;;;;2.43;2.23;;;12.30;99.90;;;;;;10417187;28;20634;-84
2021/09/30 05:14:11;;;;;;;3.87;2.57;;;12.30;99.90;;;;;;10432027;28;20328;-83
2021/09/30 05:19:14;;;;;;;3.33;2.60;;;12.30;99.90;;;;;;10433925;28;20252;-83
2021/09/30 05:24:19;;;;;;;3.80;1.67;;;12.30;99.90;;;;;;10430858;28;20271;-83
2021/09/30 05:29:21;;;;;;;2.60;2.40;;;12.30;99.90;;;;;;10414926;28;20198;-84
2021/09/30 05:34:41;;;;;;;2.73;2.53;;;12.30;99.90;;;;;;10447413;28;20263;-83
2021/09/30 05:39:45;;;;;;;3.20;2.33;;;12.40;99.90;;;;;;10474181;28;20284;-83
2021/09/30 05:44:48;;;;;;;4.10;2.17;;;12.40;99.90;;;;;;10455093;28;20221;-82
2021/09/30 05:49:50;;;;;;;2.97;1.90;;;12.30;99.90;;;;;;10454375;28;20201;-85
2021/09/30 05:55:13;;;;;;;3.07;2.77;;;12.30;99.90;;;;;;10470260;28;20252;-84
2021/09/30 06:00:23;;;;;;;2.33;2.13;;;12.30;99.90;;;;;;10453091;28;20223;-83
2021/09/30 06:10:58;;;;;;;5.80;2.90;;;12.40;99.90;;;;;;10420074;28;20584;-82
2021/09/30 06:16:05;;;;;;;3.77;1.83;;;12.50;99.90;;;;;;10454109;28;20217;-82
2021/09/30 06:21:07;;;;;;;4.07;2.60;;;12.50;99.90;;;;;;10456915;28;20221;-83
2021/09/30 06:26:12;;;;;;;2.93;2.70;;;12.50;99.90;;;;;;10449787;28;20198;-82
2021/09/30 06:31:30;;;;;;;3.53;2.50;;;12.50;99.90;;;;;;10441591;28;20221;-82
2021/09/30 06:36:55;;;;;;;2.90;2.17;;;12.50;99.90;;;;;;10395699;28;20225;-82
2021/09/30 06:41:59;;;;;;;6.13;2.73;;;12.50;99.90;;;;;;10422818;28;20226;-83
2021/09/30 06:47:20;;;;;;;5.57;2.70;;;12.60;99.90;;;;;;10424112;28;20232;-82
2021/09/30 06:52:22;;;;;;;2.43;2.23;;;12.60;99.90;;;;;;10421509;28;20600;-83
2021/09/30 06:57:28;;;;;;;3.40;2.53;;;12.60;99.90;;;;;;10405346;28;20228;-82
2021/09/30 07:02:49;;;;;;;4.00;2.70;;;12.60;99.90;;;;;;10433126;28;20248;-82
2021/09/30 07:08:18;;;;;;;4.00;2.20;;;12.70;99.90;;;;;;10434450;28;20212;-82
2021/09/30 07:13:21;;;;;;;3.83;2.50;;;12.70;99.90;;;;;;10457030;28;20308;-82
2021/09/30 07:18:24;;;;;;;3.57;2.30;;;12.80;99.90;;;;;;10457081;28;20588;-82
2021/09/30 07:23:26;;;;;;;3.13;2.27;;;12.80;99.90;;;;;;10457011;28;20681;-83
2021/09/30 07:28:29;;;;;;;3.33;2.80;;;12.90;99.90;;;;;;10457110;28;20203;-82
2021/09/30 07:33:31;;;;;;;3.87;2.27;;;13.00;99.90;;;;;;10441827;28;20225;-82
2021/09/30 07:38:33;;;;;;;2.27;1.60;;;13.10;99.90;;;;;;10457646;28;20281;-82
2021/09/30 12:19:20;;;;;;;1.73;1.50;;;15.80;98.70;;;;;;10466247;28;20197;-83
2021/09/30 12:24:25;;;;;;;1.30;1.20;;;15.80;94.10;;;;;;10449703;28;20224;-83
2021/09/30 12:29:27;;;;;;;1.93;1.60;;;15.80;98.80;;;;;;10466148;28;20197;-83
2021/09/30 12:34:29;;;;;;;1.47;1.40;;;15.80;96.80;;;;;;10468504;28;20303;-84
2021/09/30 12:39:34;;;;;;;1.40;1.30;;;15.80;99.90;;;;;;10453552;28;20201;-84
2021/09/30 12:44:41;;;;;;;1.67;1.40;;;15.80;99.90;;;;;;10474439;28;20287;-84
2021/09/30 12:49:58;;;;;;;1.40;1.30;;;15.80;98.70;;;;;;10459991;28;20197;-83
2021/09/30 12:55:05;;;;;;;3.53;1.67;;;15.80;97.20;;;;;;10472763;28;20278;-84
2021/09/30 13:00:11;;;;;;;1.63;1.53;;;15.90;96.80;;;;;;10466578;28;20193;-83
2021/09/30 13:05:13;;;;;;;2.00;1.60;;;15.90;97.10;;;;;;10422098;28;20221;-82
2021/09/30 13:10:18;;;;;;;2.63;1.57;;;15.80;97.30;;;;;;10407401;28;20221;-83
2021/09/30 13:15:33;;;;;;;1.47;1.47;;;15.90;98.20;;;;;;10422419;28;20567;-83
2021/09/30 13:20:36;;;;;;;2.00;1.37;;;15.90;97.00;;;;;;10404423;28;20302;-83
2021/09/30 13:25:40;;;;;;;1.57;1.47;;;15.90;98.40;;;;;;10418665;28;20765;-83
2021/09/30 13:30:43;;;;;;;1.70;1.53;;;16.00;96.90;;;;;;10404527;28;20201;-82
2021/09/30 13:35:45;;;;;;;1.83;1.73;;;16.00;96.20;;;;;;10474773;28;20284;-84
2021/09/30 13:40:49;;;;;;;1.87;1.77;;;16.00;92.00;;;;;;10451202;28;20274;-83
2021/09/30 13:45:51;;;;;;;2.60;1.60;;;16.00;94.50;;;;;;10530966;22;20255;-83
2021/09/30 13:50:53;;;;;;;2.20;2.10;;;16.00;96.50;;;;;;10493118;28;20682;-82
2021/09/30 13:55:56;;;;;;;2.00;1.90;;;16.00;98.00;;;;;;10507702;28;20227;-82
2021/09/30 14:00:58;;;;;;;4.53;2.00;;;16.10;95.60;;;;;;10511225;28;20195;-82
2021/09/30 14:06:02;;;;;;;3.70;1.83;;;16.10;96.50;;;;;;10513373;28;20211;-83
2021/09/30 14:11:05;;;;;;;1.60;1.50;;;16.20;93.90;;;;;;10514252;28;20193;-83
2021/09/30 14:16:08;;;;;;;1.73;1.60;;;16.20;97.20;;;;;;10513762;28;20246;-83
2021/09/30 14:21:12;;;;;;;1.80;1.70;;;16.20;97.70;;;;;;10513240;28;20252;-83
2021/09/30 14:26:16;;;;;;;2.03;1.80;;;16.20;94.00;;;;;;10497181;28;20551;-83
2021/09/30 14:31:18;;;;;;;4.40;1.80;;;16.20;96.90;;;;;;10479145;28;20624;-82
2021/09/30 14:36:20;;;;;;;1.70;1.60;;;16.30;98.20;;;;;;10495925;28;20631;-82
2021/09/30 14:41:25;;;;;;;2.20;2.03;;;16.30;94.60;;;;;;10478325;28;20574;-82
2021/09/30 14:46:27;;;;;;;2.30;1.60;;;16.30;93.70;;;;;;10496725;28;20184;-82
2021/09/30 14:51:29;;;;;;;1.87;1.77;;;16.30;97.50;;;;;;10477994;28;20216;-83
2021/09/30 14:56:33;;;;;;;1.90;1.80;;;16.40;92.40;;;;;;10483588;28;20216;-83
2021/09/30 15:01:35;;;;;;;3.40;1.50;;;16.40;93.30;;;;;;10481288;28;20263;-83
2021/09/30 15:06:39;;;;;;;1.23;1.10;;;16.40;96.20;;;;;;10478674;28;20196;-83
2021/09/30 15:11:43;;;;;;;1.80;1.70;;;16.40;96.80;;;;;;10495645;28;20567;-83
2021/09/30 15:16:52;;;;;;;1.80;1.70;;;16.50;95.40;;;;;;10477675;28;20220;-83
2021/09/30 15:21:55;;;;;;;2.40;1.67;;;16.50;97.90;;;;;;10494187;28;20244;-83
2021/09/30 15:26:58;;;;;;;2.10;2.00;;;16.50;94.30;;;;;;10493811;28;20188;-83
2021/09/30 15:32:02;;;;;;;2.53;1.83;;;16.50;95.10;;;;;;10477262;28;20280;-83
2021/09/30 15:37:05;;;;;;;1.80;1.70;;;16.60;95.70;;;;;;10476981;28;20311;-83
2021/09/30 15:42:13;;;;;;;1.80;1.60;;;16.60;96.20;;;;;;10494868;28;20630;-83
2021/09/30 15:47:15;;;;;;;2.20;2.00;;;16.60;94.80;;;;;;10494679;28;20588;-83
2021/09/30 15:52:17;;;;;;;2.20;2.07;;;16.50;95.30;;;;;;10494775;28;20299;-83
2021/09/30 15:57:21;;;;;;;2.10;2.00;;;16.50;96.40;;;;;;10494756;28;20231;-83
2021/09/30 16:02:23;;;;;;;2.37;1.80;;;16.40;96.10;;;;;;10480416;28;20225;-83
2021/09/30 16:07:25;;;;;;;2.10;1.60;;;16.30;96.50;;;;;;10437425;28;20199;-83
2021/09/30 16:12:29;;;;;;;2.20;2.00;;;16.20;96.50;;;;;;10452535;28;20234;-83
2021/09/30 16:17:31;;;;;;;2.40;1.97;;;16.10;95.50;;;;;;10453550;28;20225;-83
2021/09/30 16:22:33;;;;;;;3.00;2.70;;;16.00;96.20;;;;;;10455461;28;20245;-83
2021/09/30 16:27:38;;;;;;;1.97;1.87;;;15.90;96.30;;;;;;10453423;28;20190;-83
2021/09/30 16:32:40;;;;;;;2.73;2.50;;;15.80;96.50;;;;;;10456010;28;20229;-83
2021/09/30 16:37:42;;;;;;;4.73;2.10;;;15.70;96.60;;;;;;10486720;28;20217;-83
2021/09/30 16:42:47;;;;;;;3.40;2.30;;;15.60;96.30;;;;;;10491505;28;20231;-83
2021/09/30 16:47:50;;;;;;;2.33;2.20;;;15.50;96.80;;;;;;10484483;28;20219;-83
2021/09/30 16:52:52;;;;;;;1.97;1.37;;;15.50;97.40;;;;;;10501438;28;20714;-83
2021/09/30 16:57:56;;;;;;;1.83;1.73;;;15.40;97.40;;;;;;10501438;28;20216;-83
2021/09/30 17:02:58;;;;;;;2.27;1.97;;;15.30;97.90;;;;;;10483500;28;20248;-83
2021/09/30 17:08:00;;;;;;;4.10;3.50;;;15.20;96.60;;;;;;10484151;28;20199;-83
2021/09/30 17:13:04;;;;;;;19.63;14.80;;;15.10;97.50;;;;;;10483214;28;20250;-83
2021/09/30 17:18:06;;;;;;;13.47;11.00;;;14.90;96.70;;;;;;10501781;28;20378;-83
2021/09/30 17:23:09;;;;;;;3.83;3.53;;;14.90;97.50;;;;;;10483630;28;20212;-83
2021/09/30 17:28:12;;;;;;;3.43;3.13;;;14.80;98.10;;;;;;10501519;28;20625;-83
2021/09/30 17:33:15;;;;;;;3.67;2.00;;;14.80;97.50;;;;;;10478205;28;20218;-83
2021/09/30 17:38:17;;;;;;;3.37;2.70;;;14.70;97.80;;;;;;10458399;28;20285;-83
2021/09/30 17:43:21;;;;;;;5.27;4.07;;;14.70;96.80;;;;;;10459652;28;20310;-83
2021/09/30 17:48:23;;;;;;;11.27;10.20;;;14.60;97.20;;;;;;10458501;28;20221;-83
2021/09/30 17:53:26;;;;;;;5.63;3.43;;;14.50;97.30;;;;;;10441331;28;20220;-83
2021/09/30 17:58:29;;;;;;;2.97;2.77;;;14.50;97.60;;;;;;10457636;28;20194;-82
2021/09/30 18:03:32;;;;;;;3.97;2.20;;;14.40;98.20;;;;;;10481028;28;20227;-83
2021/09/30 18:08:34;;;;;;;3.23;2.40;;;14.40;97.70;;;;;;10482266;28;20204;-83
2021/09/30 18:13:38;;;;;;;2.60;2.40;;;14.40;97.20;;;;;;10499445;28;20211;-83
2021/09/30 18:18:40;;;;;;;5.10;2.80;;;14.30;97.80;;;;;;10480403;28;20193;-83
2021/09/30 18:23:44;;;;;;;3.90;3.60;;;14.30;97.70;;;;;;10480112;28;20592;-82
2021/09/30 18:28:49;;;;;;;4.37;3.73;;;14.30;98.00;;;;;;10481495;28;20250;-83
2021/09/30 18:33:53;;;;;;;5.30;4.20;;;14.20;96.90;;;;;;10499110;28;20221;-83
2021/09/30 18:38:55;;;;;;;6.03;3.27;;;14.10;98.40;;;;;;10482975;28;20227;-83
2021/09/30 18:43:59;;;;;;;10.03;9.23;;;14.00;98.20;;;;;;10499031;28;20227;-83
2021/09/30 18:49:01;;;;;;;4.20;3.80;;;13.90;97.70;;;;;;10501558;28;20193;-83
2021/09/30 18:54:04;;;;;;;3.70;3.50;;;13.90;97.90;;;;;;10502801;28;20324;-83
2021/09/30 18:59:08;;;;;;;3.60;3.30;;;13.90;97.90;;;;;;10504005;28;20275;-83
2021/09/30 19:04:10;;;;;;;5.90;3.20;;;13.80;98.10;;;;;;10461318;28;20235;-83
2021/09/30 19:09:15;;;;;;;6.23;5.63;;;13.70;99.30;;;;;;10461854;28;20197;-83
2021/09/30 19:14:19;;;;;;;4.90;4.40;;;13.70;99.50;;;;;;10462502;28;20213;-83
2021/09/30 19:19:21;;;;;;;11.97;7.80;;;13.70;99.40;;;;;;10462541;28;20296;-83
2021/09/30 19:24:23;;;;;;;4.90;4.50;;;13.70;99.60;;;;;;10464386;28;20205;-83
2021/09/30 19:29:27;;;;;;;3.63;3.37;;;13.60;98.80;;;;;;10468628;28;20194;-83
2021/09/30 19:34:31;;;;;;;3.57;3.17;;;13.60;98.80;;;;;;10478000;28;20217;-82
2021/09/30 19:39:34;;;;;;;4.10;3.80;;;13.50;98.60;;;;;;10458071;28;20197;-83
2021/09/30 19:44:42;;;;;;;5.97;5.47;;;13.50;97.70;;;;;;10478346;23;20644;-83
2021/09/30 19:49:45;;;;;;;4.33;4.03;;;13.40;98.20;;;;;;10454334;28;20193;-83
2021/09/30 19:54:49;;;;;;;3.93;3.60;;;13.30;97.90;;;;;;10471452;28;20304;-83
2021/09/30 19:59:55;;;;;;;5.17;4.67;;;13.20;98.40;;;;;;10445885;28;20661;-84
2021/09/30 20:04:57;;;;;;;3.57;3.37;;;13.20;98.00;;;;;;10453810;28;20217;-82
2021/09/30 20:10:12;;;;;;;4.30;3.90;;;13.10;99.10;;;;;;10440305;28;20657;-83
2021/09/30 20:15:18;;;;;;;5.60;4.97;;;13.10;98.90;;;;;;10446831;28;20323;-82
2021/09/30 20:20:20;;;;;;;4.70;4.17;;;13.10;99.00;;;;;;10444300;28;20232;-82
2021/09/30 20:25:22;;;;;;;4.17;3.87;;;13.10;99.40;;;;;;10460306;28;20209;-82
2021/09/30 20:30:26;;;;;;;3.97;3.67;;;13.00;98.90;;;;;;10447669;28;20610;-83
2021/09/30 20:35:30;;;;;;;3.53;3.30;;;13.00;99.90;;;;;;10430895;28;20225;-83
2021/09/30 20:40:37;;;;;;;3.70;3.40;;;12.90;99.50;;;;;;10427030;28;20259;-83
2021/09/30 20:46:03;;;;;;;2.83;2.63;;;13.00;98.50;;;;;;10423408;28;20222;-83
2021/09/30 20:51:05;;;;;;;2.87;2.67;;;12.90;99.00;;;;;;10408567;28;20217;-82
2021/09/30 20:56:08;;;;;;;3.17;2.60;;;12.90;99.50;;;;;;10425060;28;20214;-83
2021/09/30 21:01:12;;;;;;;3.00;2.80;;;12.90;99.90;;;;;;10439887;28;20205;-82
2021/09/30 21:06:14;;;;;;;3.20;3.00;;;12.80;99.90;;;;;;10469699;28;20655;-85
2021/09/30 21:11:16;;;;;;;4.57;4.17;;;12.90;99.90;;;;;;10458960;28;20261;-83
2021/09/30 21:16:20;;;;;;;3.90;3.60;;;12.90;99.90;;;;;;10451871;28;20275;-82
2021/09/30 21:21:24;;;;;;;3.50;3.20;;;12.90;99.90;;;;;;10448722;28;20197;-83
2021/09/30 21:26:26;;;;;;;3.67;3.40;;;12.90;99.90;;;;;;10465844;28;20209;-83
2021/09/30 21:31:33;;;;;;;3.40;3.10;;;12.90;99.90;;;;;;10449281;28;20212;-83
2021/09/30 21:36:35;;;;;;;2.83;2.50;;;13.00;99.90;;;;;;10467258;28;20221;-85
2021/09/30 21:41:37;;;;;;;3.23;2.93;;;12.90;99.90;;;;;;10466620;28;20665;-85
2021/09/30 21:46:41;;;;;;;3.47;2.80;;;13.00;99.90;;;;;;10450170;28;20203;-82
2021/09/30 21:51:43;;;;;;;3.03;2.73;;;12.90;99.90;;;;;;10449204;28;20197;-85
2021/09/30 21:56:45;;;;;;;3.00;2.70;;;12.90;99.90;;;;;;10465976;28;20227;-85
2021/09/30 22:01:49;;;;;;;2.83;2.63;;;12.80;99.90;;;;;;10450423;28;20244;-85
2021/09/30 22:06:52;;;;;;;2.77;2.57;;;12.80;99.90;;;;;;10449116;28;20256;-85
2021/09/30 22:11:57;;;;;;;3.13;2.93;;;12.80;99.90;;;;;;10468862;28;20226;-85
2021/09/30 22:17:03;;;;;;;3.37;2.27;;;12.70;99.90;;;;;;10468058;28;20219;-85
2021/09/30 22:22:05;;;;;;;4.13;2.50;;;12.70;99.90;;;;;;10480622;28;20243;-85
2021/09/30 22:27:08;;;;;;;2.77;2.57;;;12.70;99.90;;;;;;10449493;28;20196;-83
2021/09/30 22:32:11;;;;;;;4.57;2.40;;;12.60;99.90;;;;;;10447746;28;20323;-85
2021/09/30 22:37:13;;;;;;;3.60;2.40;;;12.60;99.90;;;;;;10402770;28;20225;-83
2021/09/30 22:42:16;;;;;;;2.90;2.70;;;12.60;99.90;;;;;;10404065;28;20237;-84
2021/09/30 22:47:20;;;;;;;3.23;2.47;;;12.60;99.90;;;;;;10437024;28;20198;-84
2021/09/30 22:52:22;;;;;;;2.80;2.60;;;12.50;99.90;;;;;;10426346;28;20264;-83
2021/09/30 22:57:24;;;;;;;4.57;2.30;;;12.40;99.90;;;;;;10401347;28;20218;-84
2021/09/30 23:02:28;;;;;;;2.67;2.37;;;12.40;99.90;;;;;;10417118;28;20316;-84
2021/09/30 23:07:30;;;;;;;3.77;3.40;;;12.30;99.90;;;;;;10461026;28;20588;-84
2021/09/30 23:12:32;;;;;;;3.87;3.13;;;12.30;99.90;;;;;;10446376;28;20768;-82
2021/09/30 23:17:36;;;;;;;2.70;2.50;;;12.30;99.90;;;;;;10446302;28;20298;-83
2021/09/30 23:22:38;;;;;;;2.70;2.50;;;12.40;99.90;;;;;;10441599;28;20221;-84
2021/09/30 23:27:40;;;;;;;3.70;3.27;;;12.30;99.90;;;;;;10455495;28;20194;-84
2021/09/30 23:32:44;;;;;;;3.80;2.60;;;12.30;99.90;;;;;;10459820;28;20220;-83
2021/09/30 23:37:46;;;;;;;2.97;2.67;;;12.40;99.90;;;;;;10437117;28;20634;-82
2021/09/30 23:42:48;;;;;;;3.63;3.03;;;12.30;99.90;;;;;;10435589;28;20283;-83
2021/09/30 23:47:52;;;;;;;2.83;2.63;;;12.30;99.90;;;;;;10461931;28;20279;-84
2021/09/30 23:52:54;;;;;;;2.80;2.60;;;12.20;99.90;;;;;;10460865;28;20217;-82
2021/09/30 23:57:56;;;;;;;3.60;2.80;;;12.20;99.90;;;;;;10446215;28;20227;-82
